sensor_id;sensor_type;location;lat;lon;timestamp;temperature;humidity
19003;DHT22;9634;51.040;13.794;2022-10-17T00:02:26;13.80;99.90
19003;DHT22;9634;51.040;13.794;2022-10-17T00:07:29;13.80;99.90
19003;DHT22;9634;51.040;13.794;2022-10-17T00:12:32;13.90;99.90
19003;DHT22;9634;51.040;13.794;2022-10-17T00:17:35;14.00;99.90
19003;DHT22;9634;51.040;13.794;2022-10-17T00:22:38;14.00;99.90
19003;DHT22;9634;51.040;13.794;2022-10-17T00:27:40;14.00;99.90
19003;DHT22;9634;51.040;13.794;2022-10-17T00:32:44;13.90;99.90
19003;DHT22;9634;51.040;13.794;2022-10-17T00:37:46;13.80;99.90
19003;DHT22;9634;51.040;13.794;2022-10-17T00:42:48;13.60;99.90
19003;DHT22;9634;51.040;13.794;2022-10-17T00:47:59;13.50;99.90
19003;DHT22;9634;51.040;13.794;2022-10-17T00:53:04;13.60;99.90
19003;DHT22;9634;51.040;13.794;2022-10-17T00:58:06;13.70;99.90
19003;DHT22;9634;51.040;13.794;2022-10-17T01:03:10;13.60;99.90
19003;DHT22;9634;51.040;13.794;2022-10-17T01:08:13;13.30;99.90
19003;DHT22;9634;51.040;13.794;2022-10-17T01:13:22;13.10;99.90
19003;DHT22;9634;51.040;13.794;2022-10-17T01:18:43;13.20;99.90
19003;DHT22;9634;51.040;13.794;2022-10-17T01:29:40;13.00;99.90
19003;DHT22;9634;51.040;13.794;2022-10-17T01:34:52;12.80;99.90
19003;DHT22;9634;51.040;13.794;2022-10-17T01:40:01;13.00;99.90
19003;DHT22;9634;51.040;13.794;2022-10-17T01:45:09;13.20;99.90
19003;DHT22;9634;51.040;13.794;2022-10-17T01:50:18;13.20;99.90
19003;DHT22;9634;51.040;13.794;2022-10-17T01:55:25;13.20;99.90
19003;DHT22;9634;51.040;13.794;2022-10-17T02:00:30;13.20;99.90
19003;DHT22;9634;51.040;13.794;2022-10-17T02:05:38;13.40;99.90
19003;DHT22;9634;51.040;13.794;2022-10-17T02:10:47;13.50;99.90
19003;DHT22;9634;51.040;13.794;2022-10-17T02:16:01;13.60;99.90
19003;DHT22;9634;51.040;13.794;2022-10-17T02:21:15;13.60;99.90
19003;DHT22;9634;51.040;13.794;2022-10-17T02:26:24;13.50;99.90
19003;DHT22;9634;51.040;13.794;2022-10-17T02:31:30;13.60;99.90
19003;DHT22;9634;51.040;13.794;2022-10-17T02:36:39;13.70;99.90
19003;DHT22;9634;51.040;13.794;2022-10-17T02:41:45;13.70;99.90
19003;DHT22;9634;51.040;13.794;2022-10-17T02:46:53;13.90;99.90
19003;DHT22;9634;51.040;13.794;2022-10-17T02:57:09;13.90;99.90
19003;DHT22;9634;51.040;13.794;2022-10-17T03:02:12;14.00;99.90
19003;DHT22;9634;51.040;13.794;2022-10-17T03:07:16;14.00;99.90
19003;DHT22;9634;51.040;13.794;2022-10-17T03:12:18;13.90;99.90
19003;DHT22;9634;51.040;13.794;2022-10-17T03:17:20;14.00;99.90
19003;DHT22;9634;51.040;13.794;2022-10-17T03:22:24;14.00;99.90
19003;DHT22;9634;51.040;13.794;2022-10-17T03:27:26;13.90;99.90
19003;DHT22;9634;51.040;13.794;2022-10-17T03:32:29;13.90;99.90
19003;DHT22;9634;51.040;13.794;2022-10-17T03:37:33;14.00;99.90
19003;DHT22;9634;51.040;13.794;2022-10-17T03:42:35;14.00;99.90
19003;DHT22;9634;51.040;13.794;2022-10-17T03:47:38;13.90;99.90
19003;DHT22;9634;51.040;13.794;2022-10-17T03:52:45;14.00;99.90
19003;DHT22;9634;51.040;13.794;2022-10-17T03:57:47;14.00;99.90
19003;DHT22;9634;51.040;13.794;2022-10-17T04:02:56;14.00;99.90
19003;DHT22;9634;51.040;13.794;2022-10-17T04:08:01;14.00;99.90
19003;DHT22;9634;51.040;13.794;2022-10-17T04:13:23;13.90;99.90
19003;DHT22;9634;51.040;13.794;2022-10-17T04:18:26;14.00;99.90
19003;DHT22;9634;51.040;13.794;2022-10-17T04:23:30;14.00;99.90
19003;DHT22;9634;51.040;13.794;2022-10-17T04:28:39;14.10;99.90
19003;DHT22;9634;51.040;13.794;2022-10-17T04:33:41;14.00;99.90
19003;DHT22;9634;51.040;13.794;2022-10-17T04:38:46;14.10;99.90
19003;DHT22;9634;51.040;13.794;2022-10-17T04:43:48;14.10;99.90
19003;DHT22;9634;51.040;13.794;2022-10-17T04:48:50;14.20;99.90
19003;DHT22;9634;51.040;13.794;2022-10-17T04:53:54;14.10;99.90
19003;DHT22;9634;51.040;13.794;2022-10-17T04:58:57;14.20;99.90
19003;DHT22;9634;51.040;13.794;2022-10-17T05:04:00;14.20;99.90
19003;DHT22;9634;51.040;13.794;2022-10-17T05:09:05;14.20;99.90
19003;DHT22;9634;51.040;13.794;2022-10-17T05:14:07;14.10;99.90
19003;DHT22;9634;51.040;13.794;2022-10-17T05:19:10;14.10;99.90
19003;DHT22;9634;51.040;13.794;2022-10-17T05:24:20;14.00;99.90
19003;DHT22;9634;51.040;13.794;2022-10-17T05:29:22;14.10;99.90
19003;DHT22;9634;51.040;13.794;2022-10-17T05:34:29;14.00;99.90
19003;DHT22;9634;51.040;13.794;2022-10-17T05:39:33;14.00;99.90
19003;DHT22;9634;51.040;13.794;2022-10-17T05:44:38;14.10;99.90
19003;DHT22;9634;51.040;13.794;2022-10-17T05:49:42;14.10;99.90
19003;DHT22;9634;51.040;13.794;2022-10-17T05:54:46;14.20;99.90
19003;DHT22;9634;51.040;13.794;2022-10-17T05:59:48;14.30;99.90
19003;DHT22;9634;51.040;13.794;2022-10-17T06:04:53;14.40;99.90
19003;DHT22;9634;51.040;13.794;2022-10-17T06:09:59;14.50;99.90
19003;DHT22;9634;51.040;13.794;2022-10-17T06:15:01;14.60;99.90
19003;DHT22;9634;51.040;13.794;2022-10-17T06:20:05;14.70;99.90
19003;DHT22;9634;51.040;13.794;2022-10-17T06:25:09;14.80;99.90
19003;DHT22;9634;51.040;13.794;2022-10-17T06:30:12;14.90;99.90
19003;DHT22;9634;51.040;13.794;2022-10-17T06:35:14;15.00;99.90
19003;DHT22;9634;51.040;13.794;2022-10-17T06:40:18;15.00;99.90
19003;DHT22;9634;51.040;13.794;2022-10-17T06:45:20;15.10;99.90
19003;DHT22;9634;51.040;13.794;2022-10-17T06:50:41;15.20;99.90
19003;DHT22;9634;51.040;13.794;2022-10-17T06:56:03;15.30;99.90
19003;DHT22;9634;51.040;13.794;2022-10-17T07:01:18;15.40;99.90
19003;DHT22;9634;51.040;13.794;2022-10-17T07:06:22;15.60;99.90
19003;DHT22;9634;51.040;13.794;2022-10-17T07:11:27;15.70;99.90
19003;DHT22;9634;51.040;13.794;2022-10-17T07:16:29;15.80;99.90
19003;DHT22;9634;51.040;13.794;2022-10-17T07:21:47;16.00;99.90
19003;DHT22;9634;51.040;13.794;2022-10-17T07:26:51;16.20;99.90
19003;DHT22;9634;51.040;13.794;2022-10-17T07:31:54;16.30;99.90
19003;DHT22;9634;51.040;13.794;2022-10-17T07:36:57;16.80;99.90
19003;DHT22;9634;51.040;13.794;2022-10-17T07:42:00;17.70;99.90
19003;DHT22;9634;51.040;13.794;2022-10-17T07:47:03;18.30;99.90
19003;DHT22;9634;51.040;13.794;2022-10-17T07:52:06;18.60;99.90
19003;DHT22;9634;51.040;13.794;2022-10-17T07:57:09;19.30;99.90
19003;DHT22;9634;51.040;13.794;2022-10-17T08:02:19;20.00;99.90
19003;DHT22;9634;51.040;13.794;2022-10-17T08:07:22;20.70;99.90
19003;DHT22;9634;51.040;13.794;2022-10-17T08:12:26;21.10;99.90
19003;DHT22;9634;51.040;13.794;2022-10-17T08:17:33;21.30;99.90
19003;DHT22;9634;51.040;13.794;2022-10-17T08:22:35;21.60;99.90
19003;DHT22;9634;51.040;13.794;2022-10-17T08:27:39;22.70;99.90
19003;DHT22;9634;51.040;13.794;2022-10-17T08:32:42;22.70;99.90
19003;DHT22;9634;51.040;13.794;2022-10-17T08:37:44;22.70;99.90
19003;DHT22;9634;51.040;13.794;2022-10-17T08:48:40;23.50;99.90
19003;DHT22;9634;51.040;13.794;2022-10-17T08:53:48;23.50;99.90
19003;DHT22;9634;51.040;13.794;2022-10-17T08:58:52;23.00;99.90
19003;DHT22;9634;51.040;13.794;2022-10-17T09:04:15;22.90;99.90
19003;DHT22;9634;51.040;13.794;2022-10-17T09:09:30;23.20;99.90
19003;DHT22;9634;51.040;13.794;2022-10-17T09:14:55;24.90;99.90
19003;DHT22;9634;51.040;13.794;2022-10-17T09:20:07;25.20;99.90
19003;DHT22;9634;51.040;13.794;2022-10-17T09:25:13;25.90;97.00
19003;DHT22;9634;51.040;13.794;2022-10-17T09:30:24;26.00;95.40
19003;DHT22;9634;51.040;13.794;2022-10-17T09:35:30;26.10;93.20
19003;DHT22;9634;51.040;13.794;2022-10-17T09:40:33;26.10;93.80
19003;DHT22;9634;51.040;13.794;2022-10-17T09:45:42;27.70;81.90
19003;DHT22;9634;51.040;13.794;2022-10-17T09:50:48;28.50;69.20
19003;DHT22;9634;51.040;13.794;2022-10-17T09:55:53;27.60;71.60
19003;DHT22;9634;51.040;13.794;2022-10-17T10:01:15;28.50;64.70
19003;DHT22;9634;51.040;13.794;2022-10-17T10:06:19;28.20;65.70
19003;DHT22;9634;51.040;13.794;2022-10-17T10:11:23;29.50;57.20
19003;DHT22;9634;51.040;13.794;2022-10-17T10:16:30;30.10;52.80
19003;DHT22;9634;51.040;13.794;2022-10-17T10:21:34;30.50;49.50
19003;DHT22;9634;51.040;13.794;2022-10-17T10:26:39;30.80;47.80
19003;DHT22;9634;51.040;13.794;2022-10-17T10:31:41;32.60;41.30
19003;DHT22;9634;51.040;13.794;2022-10-17T10:36:52;32.60;40.00
19003;DHT22;9634;51.040;13.794;2022-10-17T10:41:56;32.80;37.80
19003;DHT22;9634;51.040;13.794;2022-10-17T10:47:14;35.50;30.90
19003;DHT22;9634;51.040;13.794;2022-10-17T10:52:30;36.30;27.80
19003;DHT22;9634;51.040;13.794;2022-10-17T10:57:35;34.00;29.70
19003;DHT22;9634;51.040;13.794;2022-10-17T11:02:44;32.30;32.90
19003;DHT22;9634;51.040;13.794;2022-10-17T11:07:52;32.20;33.50
19003;DHT22;9634;51.040;13.794;2022-10-17T11:13:02;32.90;32.40
19003;DHT22;9634;51.040;13.794;2022-10-17T11:18:07;33.10;32.40
19003;DHT22;9634;51.040;13.794;2022-10-17T11:23:17;34.10;30.30
19003;DHT22;9634;51.040;13.794;2022-10-17T11:28:22;36.50;27.00
19003;DHT22;9634;51.040;13.794;2022-10-17T11:33:29;36.00;26.30
19003;DHT22;9634;51.040;13.794;2022-10-17T11:38:43;35.30;27.20
19003;DHT22;9634;51.040;13.794;2022-10-17T11:43:50;35.50;27.50
19003;DHT22;9634;51.040;13.794;2022-10-17T11:49:05;35.50;26.50
19003;DHT22;9634;51.040;13.794;2022-10-17T11:54:12;34.90;27.90
19003;DHT22;9634;51.040;13.794;2022-10-17T11:59:47;36.20;26.20
19003;DHT22;9634;51.040;13.794;2022-10-17T12:04:59;39.10;23.20
19003;DHT22;9634;51.040;13.794;2022-10-17T12:10:18;39.50;21.20
19003;DHT22;9634;51.040;13.794;2022-10-17T12:15:27;38.10;22.40
19003;DHT22;9634;51.040;13.794;2022-10-17T12:20:33;37.60;22.90
19003;DHT22;9634;51.040;13.794;2022-10-17T12:25:47;37.90;22.70
19003;DHT22;9634;51.040;13.794;2022-10-17T12:30:55;38.20;22.10
19003;DHT22;9634;51.040;13.794;2022-10-17T12:41:53;39.10;20.50
19003;DHT22;9634;51.040;13.794;2022-10-17T12:46:56;40.40;19.40
19003;DHT22;9634;51.040;13.794;2022-10-17T12:57:31;39.80;19.00
19003;DHT22;9634;51.040;13.794;2022-10-17T13:02:34;40.80;17.70
19003;DHT22;9634;51.040;13.794;2022-10-17T13:07:40;41.80;16.60
19003;DHT22;9634;51.040;13.794;2022-10-17T13:12:45;42.40;15.90
19003;DHT22;9634;51.040;13.794;2022-10-17T13:17:55;42.90;15.10
19003;DHT22;9634;51.040;13.794;2022-10-17T13:22:58;42.60;15.10
19003;DHT22;9634;51.040;13.794;2022-10-17T13:28:11;42.40;15.30
19003;DHT22;9634;51.040;13.794;2022-10-17T13:33:30;43.40;14.50
19003;DHT22;9634;51.040;13.794;2022-10-17T13:38:34;41.00;16.40
19003;DHT22;9634;51.040;13.794;2022-10-17T13:43:38;39.10;18.00
19003;DHT22;9634;51.040;13.794;2022-10-17T13:48:40;38.70;18.50
19003;DHT22;9634;51.040;13.794;2022-10-17T13:53:43;37.20;19.90
19003;DHT22;9634;51.040;13.794;2022-10-17T13:58:48;35.40;22.00
19003;DHT22;9634;51.040;13.794;2022-10-17T14:03:51;34.20;23.90
19003;DHT22;9634;51.040;13.794;2022-10-17T14:08:57;34.40;24.00
19003;DHT22;9634;51.040;13.794;2022-10-17T14:14:03;33.40;25.50
19003;DHT22;9634;51.040;13.794;2022-10-17T14:19:22;32.50;26.60
19003;DHT22;9634;51.040;13.794;2022-10-17T14:24:29;31.60;28.10
19003;DHT22;9634;51.040;13.794;2022-10-17T14:29:52;30.30;30.00
19003;DHT22;9634;51.040;13.794;2022-10-17T14:34:55;28.20;33.90
19003;DHT22;9634;51.040;13.794;2022-10-17T14:39:59;26.80;38.70
19003;DHT22;9634;51.040;13.794;2022-10-17T14:45:06;25.60;44.00
19003;DHT22;9634;51.040;13.794;2022-10-17T14:50:21;24.70;53.30
19003;DHT22;9634;51.040;13.794;2022-10-17T14:55:25;24.10;69.80
19003;DHT22;9634;51.040;13.794;2022-10-17T15:00:29;23.60;90.40
19003;DHT22;9634;51.040;13.794;2022-10-17T15:05:31;23.30;99.10
19003;DHT22;9634;51.040;13.794;2022-10-17T15:10:35;22.90;99.90
19003;DHT22;9634;51.040;13.794;2022-10-17T15:15:39;22.40;99.90
19003;DHT22;9634;51.040;13.794;2022-10-17T15:20:41;22.00;99.90
19003;DHT22;9634;51.040;13.794;2022-10-17T15:25:43;21.80;99.90
19003;DHT22;9634;51.040;13.794;2022-10-17T15:30:47;21.50;99.90
19003;DHT22;9634;51.040;13.794;2022-10-17T15:35:50;21.30;99.90
19003;DHT22;9634;51.040;13.794;2022-10-17T15:40:53;21.30;99.90
19003;DHT22;9634;51.040;13.794;2022-10-17T15:45:56;21.00;99.90
19003;DHT22;9634;51.040;13.794;2022-10-17T15:51:00;20.60;99.90
19003;DHT22;9634;51.040;13.794;2022-10-17T15:56:03;20.20;99.90
19003;DHT22;9634;51.040;13.794;2022-10-17T16:01:17;19.90;99.90
19003;DHT22;9634;51.040;13.794;2022-10-17T16:06:21;19.60;99.90
19003;DHT22;9634;51.040;13.794;2022-10-17T16:11:27;19.40;99.90
19003;DHT22;9634;51.040;13.794;2022-10-17T16:16:33;19.10;99.90
19003;DHT22;9634;51.040;13.794;2022-10-17T16:21:37;18.80;99.90
19003;DHT22;9634;51.040;13.794;2022-10-17T16:26:40;18.60;99.90
19003;DHT22;9634;51.040;13.794;2022-10-17T16:31:44;18.50;99.90
19003;DHT22;9634;51.040;13.794;2022-10-17T16:36:46;18.30;99.90
19003;DHT22;9634;51.040;13.794;2022-10-17T16:41:49;18.20;99.90
19003;DHT22;9634;51.040;13.794;2022-10-17T16:46:52;18.10;99.90
19003;DHT22;9634;51.040;13.794;2022-10-17T16:51:54;18.00;99.90
19003;DHT22;9634;51.040;13.794;2022-10-17T16:56:57;17.90;99.90
19003;DHT22;9634;51.040;13.794;2022-10-17T17:02:00;17.80;99.90
19003;DHT22;9634;51.040;13.794;2022-10-17T17:07:02;17.70;99.90
19003;DHT22;9634;51.040;13.794;2022-10-17T19:11:10;16.80;99.90
19003;DHT22;9634;51.040;13.794;2022-10-17T19:16:17;16.70;99.90
19003;DHT22;9634;51.040;13.794;2022-10-17T19:21:20;16.80;99.90
19003;DHT22;9634;51.040;13.794;2022-10-17T19:26:24;16.70;99.90
19003;DHT22;9634;51.040;13.794;2022-10-17T19:31:28;16.70;99.90
19003;DHT22;9634;51.040;13.794;2022-10-17T19:36:33;16.60;99.90
19003;DHT22;9634;51.040;13.794;2022-10-17T19:41:38;16.50;99.90
19003;DHT22;9634;51.040;13.794;2022-10-17T19:46:41;16.50;99.90
19003;DHT22;9634;51.040;13.794;2022-10-17T19:51:46;16.40;99.90
19003;DHT22;9634;51.040;13.794;2022-10-17T19:56:50;16.40;99.90
19003;DHT22;9634;51.040;13.794;2022-10-17T20:01:52;16.30;99.90
19003;DHT22;9634;51.040;13.794;2022-10-17T20:06:54;16.20;99.90
19003;DHT22;9634;51.040;13.794;2022-10-17T20:12:01;16.10;99.90
19003;DHT22;9634;51.040;13.794;2022-10-17T20:17:03;16.00;99.90
19003;DHT22;9634;51.040;13.794;2022-10-17T20:22:05;15.90;99.90
19003;DHT22;9634;51.040;13.794;2022-10-17T20:27:08;16.00;99.90
19003;DHT22;9634;51.040;13.794;2022-10-17T20:32:11;15.90;99.90
19003;DHT22;9634;51.040;13.794;2022-10-17T20:37:13;15.90;99.90
19003;DHT22;9634;51.040;13.794;2022-10-17T20:42:16;15.80;99.90
19003;DHT22;9634;51.040;13.794;2022-10-17T20:47:21;15.80;99.90
19003;DHT22;9634;51.040;13.794;2022-10-17T20:52:23;15.70;99.90
19003;DHT22;9634;51.040;13.794;2022-10-17T20:57:27;15.50;99.90
19003;DHT22;9634;51.040;13.794;2022-10-17T21:02:29;15.40;99.90
19003;DHT22;9634;51.040;13.794;2022-10-17T21:07:31;15.30;99.90
19003;DHT22;9634;51.040;13.794;2022-10-17T21:12:35;15.30;99.90
19003;DHT22;9634;51.040;13.794;2022-10-17T21:17:37;15.20;99.90
19003;DHT22;9634;51.040;13.794;2022-10-17T21:22:39;15.00;99.90
19003;DHT22;9634;51.040;13.794;2022-10-17T21:27:43;15.10;99.90
19003;DHT22;9634;51.040;13.794;2022-10-17T21:32:45;15.10;99.90
19003;DHT22;9634;51.040;13.794;2022-10-17T21:37:47;15.10;99.90
19003;DHT22;9634;51.040;13.794;2022-10-17T21:42:51;15.10;99.90
19003;DHT22;9634;51.040;13.794;2022-10-17T21:47:53;15.10;99.90
19003;DHT22;9634;51.040;13.794;2022-10-17T21:52:57;15.10;99.90
19003;DHT22;9634;51.040;13.794;2022-10-17T21:58:00;15.10;99.90
19003;DHT22;9634;51.040;13.794;2022-10-17T22:03:03;14.90;99.90
19003;DHT22;9634;51.040;13.794;2022-10-17T22:08:07;15.00;99.90
19003;DHT22;9634;51.040;13.794;2022-10-17T22:13:10;15.00;99.90
19003;DHT22;9634;51.040;13.794;2022-10-17T22:18:12;14.90;99.90
19003;DHT22;9634;51.040;13.794;2022-10-17T22:23:15;14.60;99.90
19003;DHT22;9634;51.040;13.794;2022-10-17T22:28:18;14.80;99.90
19003;DHT22;9634;51.040;13.794;2022-10-17T22:33:20;14.70;99.90
19003;DHT22;9634;51.040;13.794;2022-10-17T22:38:23;14.60;99.90
19003;DHT22;9634;51.040;13.794;2022-10-17T22:43:26;14.40;99.90
19003;DHT22;9634;51.040;13.794;2022-10-17T22:48:29;14.30;99.90
19003;DHT22;9634;51.040;13.794;2022-10-17T22:53:32;14.40;99.90
19003;DHT22;9634;51.040;13.794;2022-10-17T22:58:37;14.40;99.90
19003;DHT22;9634;51.040;13.794;2022-10-17T23:03:39;14.40;99.90
19003;DHT22;9634;51.040;13.794;2022-10-17T23:08:41;14.30;99.90
19003;DHT22;9634;51.040;13.794;2022-10-17T23:13:45;14.40;99.90
19003;DHT22;9634;51.040;13.794;2022-10-17T23:18:47;14.40;99.90
19003;DHT22;9634;51.040;13.794;2022-10-17T23:23:49;14.40;99.90
19003;DHT22;9634;51.040;13.794;2022-10-17T23:28:54;14.30;99.90
19003;DHT22;9634;51.040;13.794;2022-10-17T23:33:57;14.20;99.90
19003;DHT22;9634;51.040;13.794;2022-10-17T23:38:59;14.20;99.90
19003;DHT22;9634;51.040;13.794;2022-10-17T23:44:04;14.20;99.90
19003;DHT22;9634;51.040;13.794;2022-10-17T23:49:06;14.10;99.90
19003;DHT22;9634;51.040;13.794;2022-10-17T23:54:08;14.10;99.90
19003;DHT22;9634;51.040;13.794;2022-10-17T23:59:12;13.90;99.90
